createdAt,value
2022-10-05T00:00:53.550Z,14.40
2022-10-05T00:01:53.738Z,13.30
2022-10-05T00:02:53.526Z,12.40
2022-10-05T00:03:53.574Z,15.90
2022-10-05T00:04:53.525Z,16.90
2022-10-05T00:05:53.488Z,17.70
2022-10-05T00:06:53.488Z,16.30
2022-10-05T00:07:53.460Z,15.50
2022-10-05T00:08:53.438Z,16.70
2022-10-05T00:09:53.438Z,15.60
2022-10-05T00:10:53.418Z,16.00
2022-10-05T00:11:53.426Z,15.80
2022-10-05T00:12:53.389Z,16.40
2022-10-05T00:13:53.387Z,12.90
2022-10-05T00:14:53.371Z,21.10
2022-10-05T00:15:53.351Z,14.50
2022-10-05T00:16:53.408Z,15.20
2022-10-05T00:17:53.329Z,14.60
2022-10-05T00:18:53.311Z,12.10
2022-10-05T00:19:53.311Z,16.30
2022-10-05T00:20:53.280Z,16.10
2022-10-05T00:21:53.297Z,11.90
2022-10-05T00:22:53.262Z,17.40
2022-10-05T00:23:53.250Z,18.00
2022-10-05T00:24:53.231Z,14.40
2022-10-05T00:25:53.247Z,18.80
2022-10-05T00:26:57.732Z,15.30
2022-10-05T00:27:53.249Z,16.20
2022-10-05T00:28:53.180Z,17.40
2022-10-05T00:29:53.172Z,20.50
2022-10-05T00:30:53.169Z,13.00
2022-10-05T00:31:53.254Z,18.40
2022-10-05T00:32:58.644Z,15.80
2022-10-05T00:33:54.112Z,17.40
2022-10-05T00:34:53.101Z,20.70
2022-10-05T00:35:53.110Z,17.60
2022-10-05T00:36:53.071Z,17.80
2022-10-05T00:37:53.063Z,15.40
2022-10-05T00:38:53.052Z,16.50
2022-10-05T00:39:53.039Z,20.20
2022-10-05T00:40:53.034Z,19.60
2022-10-05T00:41:53.023Z,18.60
2022-10-05T00:42:52.994Z,18.90
2022-10-05T00:43:52.984Z,19.80
2022-10-05T00:44:52.965Z,18.00
2022-10-05T00:45:53.008Z,17.00
2022-10-05T00:46:52.961Z,18.80
2022-10-05T00:47:52.931Z,18.50
2022-10-05T00:48:52.913Z,17.10
2022-10-05T00:49:52.982Z,18.30
2022-10-05T00:50:52.884Z,20.10
2022-10-05T00:51:52.894Z,20.40
2022-10-05T00:52:52.865Z,18.00
2022-10-05T00:53:52.852Z,18.70
2022-10-05T00:54:52.834Z,19.20
2022-10-05T00:55:52.825Z,20.10
2022-10-05T00:56:52.823Z,16.90
2022-10-05T00:57:52.795Z,21.00
2022-10-05T00:58:52.777Z,17.30
2022-10-05T00:59:52.772Z,20.20
2022-10-05T01:00:52.808Z,21.40
2022-10-05T01:01:52.807Z,15.70
2022-10-05T01:02:52.793Z,18.30
2022-10-05T01:03:52.716Z,21.00
2022-10-05T01:04:52.696Z,19.20
2022-10-05T01:05:52.688Z,16.90
2022-10-05T01:06:52.686Z,27.70
2022-10-05T01:07:52.666Z,20.50
2022-10-05T01:08:52.646Z,18.50
2022-10-05T01:09:52.638Z,18.60
2022-10-05T01:10:52.629Z,19.20
2022-10-05T01:11:52.627Z,19.90
2022-10-05T01:12:52.594Z,20.10
2022-10-05T01:13:52.588Z,18.90
2022-10-05T01:14:52.570Z,19.30
2022-10-05T01:15:52.558Z,22.00
2022-10-05T01:16:52.603Z,18.60
2022-10-05T01:17:52.530Z,21.70
2022-10-05T01:18:52.518Z,22.00
2022-10-05T01:19:52.498Z,24.00
2022-10-05T01:20:52.488Z,18.50
2022-10-05T01:21:52.495Z,24.30
2022-10-05T01:22:52.459Z,21.70
2022-10-05T01:23:52.459Z,23.50
2022-10-05T01:24:52.439Z,23.40
2022-10-05T01:25:52.428Z,17.60
2022-10-05T01:26:52.439Z,23.00
2022-10-05T01:27:52.492Z,18.90
2022-10-05T01:28:52.382Z,20.50
2022-10-05T01:29:52.369Z,19.70
2022-10-05T01:30:52.349Z,22.60
2022-10-05T01:31:52.428Z,25.00
2022-10-05T01:32:52.331Z,27.80
2022-10-05T01:33:52.320Z,19.40
2022-10-05T01:34:52.303Z,24.30
2022-10-05T01:35:52.291Z,25.60
2022-10-05T01:36:52.331Z,27.00
2022-10-05T01:37:52.265Z,26.40
2022-10-05T01:38:52.248Z,27.60
2022-10-05T01:39:52.244Z,20.90
2022-10-05T01:40:52.222Z,24.60
2022-10-05T01:41:52.232Z,21.90
2022-10-05T01:42:52.193Z,21.50
2022-10-05T01:43:52.191Z,23.90
2022-10-05T01:44:52.172Z,28.40
2022-10-05T01:45:52.202Z,25.30
2022-10-05T01:46:52.142Z,28.60
2022-10-05T01:47:52.144Z,23.20
2022-10-05T01:48:52.113Z,26.30
2022-10-05T01:49:52.102Z,25.60
2022-10-05T01:50:52.083Z,24.20
2022-10-05T01:51:52.093Z,26.40
2022-10-05T01:52:52.066Z,22.20
2022-10-05T01:53:52.044Z,23.60
2022-10-05T01:54:52.041Z,27.00
2022-10-05T01:55:52.014Z,27.00
2022-10-05T01:56:52.037Z,25.60
2022-10-05T01:57:51.993Z,24.60
2022-10-05T01:58:51.985Z,26.30
2022-10-05T01:59:51.963Z,27.60
2022-10-05T02:00:51.985Z,26.00
2022-10-05T02:01:51.989Z,25.00
2022-10-05T02:02:51.955Z,23.00
2022-10-05T02:03:51.922Z,28.00
2022-10-05T02:05:07.228Z,22.60
2022-10-05T02:05:52.884Z,22.10
2022-10-05T02:06:51.895Z,26.50
2022-10-05T02:07:51.865Z,28.40
2022-10-05T02:08:51.865Z,23.90
2022-10-05T02:09:51.835Z,26.60
2022-10-05T02:10:51.836Z,27.60
2022-10-05T02:11:51.826Z,27.90
2022-10-05T02:12:51.807Z,26.50
2022-10-05T02:13:51.775Z,26.60
2022-10-05T02:14:51.776Z,28.70
2022-10-05T02:15:51.856Z,26.60
2022-10-05T02:16:51.763Z,29.30
2022-10-05T02:17:51.727Z,28.90
2022-10-05T02:18:51.729Z,24.50
2022-10-05T02:19:51.697Z,29.40
2022-10-05T02:20:51.689Z,26.90
2022-10-05T02:21:51.699Z,26.70
2022-10-05T02:22:51.667Z,27.20
2022-10-05T02:23:51.647Z,25.40
2022-10-05T02:24:51.638Z,28.70
2022-10-05T02:25:51.618Z,26.50
2022-10-05T02:26:51.627Z,22.50
2022-10-05T02:27:51.598Z,26.40
2022-10-05T02:28:51.587Z,26.60
2022-10-05T02:29:51.567Z,29.90
2022-10-05T02:30:51.558Z,28.00
2022-10-05T02:31:51.606Z,29.60
2022-10-05T02:32:51.528Z,31.00
2022-10-05T02:33:51.519Z,23.90
2022-10-05T02:34:51.507Z,29.40
2022-10-05T02:35:51.490Z,24.40
2022-10-05T02:36:51.498Z,26.80
2022-10-05T02:37:51.468Z,27.80
2022-10-05T02:38:51.467Z,26.50
2022-10-05T02:39:51.439Z,24.00
2022-10-05T02:40:51.427Z,25.30
2022-10-05T02:41:51.428Z,28.00
2022-10-05T02:42:51.402Z,26.50
2022-10-05T02:43:51.379Z,21.60
2022-10-05T02:44:51.372Z,22.80
2022-10-05T02:45:51.424Z,28.60
2022-10-05T02:46:56.790Z,27.30
2022-10-05T02:47:52.330Z,28.30
2022-10-05T02:48:51.322Z,25.40
2022-10-05T02:49:51.300Z,24.10
2022-10-05T02:50:51.301Z,21.80
2022-10-05T02:51:51.291Z,23.10
2022-10-05T02:52:51.281Z,25.00
2022-10-05T02:53:51.250Z,23.20
2022-10-05T02:54:51.255Z,21.50
2022-10-05T02:55:51.221Z,28.60
2022-10-05T02:56:51.221Z,22.40
2022-10-05T02:57:51.192Z,25.70
2022-10-05T02:58:51.190Z,22.80
2022-10-05T02:59:51.173Z,21.00
2022-10-05T03:00:51.206Z,27.40
2022-10-05T03:01:51.203Z,20.20
2022-10-05T03:02:51.133Z,18.40
2022-10-05T03:03:51.117Z,21.70
2022-10-05T03:04:51.102Z,22.00
2022-10-05T03:05:51.093Z,23.80
2022-10-05T03:06:51.101Z,23.20
2022-10-05T03:07:51.064Z,19.90
2022-10-05T03:08:51.054Z,22.70
2022-10-05T03:09:51.035Z,24.90
2022-10-05T03:10:51.025Z,18.20
2022-10-05T03:11:51.023Z,20.60
2022-10-05T03:12:51.007Z,20.40
2022-10-05T03:13:50.985Z,21.50
2022-10-05T03:14:50.978Z,21.30
2022-10-05T03:15:51.031Z,25.50
2022-10-05T03:16:51.004Z,25.10
2022-10-05T03:17:50.927Z,18.30
2022-10-05T03:18:50.923Z,20.30
2022-10-05T03:19:50.903Z,21.70
2022-10-05T03:20:50.895Z,21.70
2022-10-05T03:21:50.898Z,18.90
2022-10-05T03:22:50.866Z,21.80
2022-10-05T03:23:50.855Z,22.00
2022-10-05T03:24:50.848Z,18.50
2022-10-05T03:25:50.826Z,18.10
2022-10-05T03:26:50.840Z,21.80
2022-10-05T03:27:50.801Z,20.60
2022-10-05T03:28:50.786Z,21.90
2022-10-05T03:29:50.776Z,18.70
2022-10-05T03:30:50.803Z,19.00
2022-10-05T03:31:50.773Z,18.20
2022-10-05T03:32:50.748Z,18.80
2022-10-05T03:33:50.717Z,19.70
2022-10-05T03:34:50.708Z,19.80
2022-10-05T03:35:50.707Z,20.70
2022-10-05T03:36:50.707Z,20.50
2022-10-05T03:37:50.669Z,21.80
2022-10-05T03:38:50.668Z,20.10
2022-10-05T03:39:50.649Z,20.30
2022-10-05T03:40:50.629Z,18.60
2022-10-05T03:41:50.628Z,23.80
2022-10-05T03:42:50.607Z,16.30
2022-10-05T03:43:50.588Z,17.70
2022-10-05T03:44:50.581Z,19.70
2022-10-05T03:45:50.587Z,19.40
2022-10-05T03:46:50.719Z,18.80
2022-10-05T03:47:50.529Z,18.90
2022-10-05T03:48:50.520Z,18.70
2022-10-05T03:49:50.509Z,15.40
2022-10-05T03:50:50.502Z,15.70
2022-10-05T03:51:50.490Z,16.10
2022-10-05T03:52:50.470Z,17.60
2022-10-05T03:53:50.451Z,19.90
2022-10-05T03:54:50.442Z,17.50
2022-10-05T03:55:50.428Z,16.20
2022-10-05T03:56:50.432Z,22.20
2022-10-05T03:57:50.420Z,17.50
2022-10-05T03:58:50.391Z,18.90
2022-10-05T03:59:50.373Z,17.80
2022-10-05T04:00:50.369Z,17.50
2022-10-05T04:01:50.393Z,17.80
2022-10-05T04:02:50.428Z,16.90
2022-10-05T04:03:50.312Z,16.90
2022-10-05T04:04:50.314Z,19.50
2022-10-05T04:05:50.295Z,18.60
2022-10-05T04:06:50.351Z,17.30
2022-10-05T04:07:50.263Z,20.90
2022-10-05T04:08:50.259Z,16.80
2022-10-05T04:09:50.244Z,16.60
2022-10-05T04:10:50.264Z,51.00
2022-10-05T04:11:50.217Z,48.00
2022-10-05T04:12:50.226Z,34.90
2022-10-05T04:13:50.182Z,40.90
2022-10-05T04:14:50.183Z,18.50
2022-10-05T04:15:50.246Z,153.10
2022-10-05T04:16:50.163Z,27.60
2022-10-05T04:17:50.131Z,18.00
2022-10-05T04:18:50.122Z,18.50
2022-10-05T04:19:50.107Z,17.30
2022-10-05T04:20:50.094Z,32.70
2022-10-05T04:21:50.096Z,22.00
2022-10-05T04:22:50.084Z,21.70
2022-10-05T04:23:50.055Z,18.70
2022-10-05T04:24:50.044Z,18.10
2022-10-05T04:25:50.026Z,14.60
2022-10-05T04:26:50.111Z,16.70
2022-10-05T04:27:50.082Z,17.10
2022-10-05T04:28:49.993Z,20.10
2022-10-05T04:29:49.974Z,18.10
2022-10-05T04:30:49.967Z,17.00
2022-10-05T04:31:50.020Z,35.60
2022-10-05T04:32:49.947Z,57.90
2022-10-05T04:33:49.916Z,126.90
2022-10-05T04:34:49.918Z,33.10
2022-10-05T04:35:49.895Z,81.70
2022-10-05T04:36:49.887Z,26.50
2022-10-05T04:37:49.877Z,20.50
2022-10-05T04:38:49.858Z,18.00
2022-10-05T04:39:49.876Z,19.20
2022-10-05T04:40:49.828Z,18.40
2022-10-05T04:41:49.827Z,60.70
2022-10-05T04:42:49.807Z,23.70
2022-10-05T04:43:49.787Z,25.20
2022-10-05T04:44:49.778Z,19.50
2022-10-05T04:45:49.758Z,20.30
2022-10-05T04:46:50.261Z,20.50
2022-10-05T04:47:49.728Z,19.40
2022-10-05T04:48:49.729Z,18.80
2022-10-05T04:49:49.707Z,17.40
2022-10-05T04:50:49.698Z,17.30
2022-10-05T04:51:51.302Z,18.00
2022-10-05T04:52:49.672Z,17.10
2022-10-05T04:53:49.657Z,14.50
2022-10-05T04:54:49.649Z,15.50
2022-10-05T04:55:49.628Z,15.10
2022-10-05T04:56:49.979Z,15.10
2022-10-05T04:57:49.600Z,15.60
2022-10-05T04:58:49.592Z,15.60
2022-10-05T04:59:49.570Z,16.40
2022-10-05T05:00:49.640Z,12.90
2022-10-05T05:01:49.551Z,16.10
2022-10-05T05:02:49.550Z,11.80
2022-10-05T05:03:49.571Z,15.60
2022-10-05T05:04:51.878Z,18.80
2022-10-05T05:06:15.213Z,25.60
2022-10-05T05:06:50.480Z,18.60
2022-10-05T05:07:49.481Z,21.60
2022-10-05T05:08:49.511Z,15.10
2022-10-05T05:09:49.441Z,20.40
2022-10-05T05:10:49.436Z,17.40
2022-10-05T05:11:49.476Z,16.70
2022-10-05T05:12:49.401Z,15.10
2022-10-05T05:13:49.384Z,17.30
2022-10-05T05:14:49.392Z,15.10
2022-10-05T05:15:49.392Z,19.00
2022-10-05T05:16:49.636Z,14.70
2022-10-05T05:17:49.340Z,23.80
2022-10-05T05:18:49.323Z,25.20
2022-10-05T05:19:49.304Z,39.70
2022-10-05T05:20:49.302Z,19.60
2022-10-05T05:21:49.294Z,18.10
2022-10-05T05:22:49.274Z,27.60
2022-10-05T05:23:49.254Z,23.30
2022-10-05T05:24:49.263Z,82.50
2022-10-05T05:25:49.227Z,19.70
2022-10-05T05:26:49.514Z,17.70
2022-10-05T05:27:49.213Z,15.80
2022-10-05T05:28:49.196Z,16.00
2022-10-05T05:29:49.175Z,16.40
2022-10-05T05:30:49.165Z,17.80
2022-10-05T05:31:49.242Z,15.40
2022-10-05T05:32:49.135Z,16.40
2022-10-05T05:33:49.123Z,16.00
2022-10-05T05:34:49.106Z,15.90
2022-10-05T05:35:49.107Z,13.40
2022-10-05T05:36:49.403Z,15.40
2022-10-05T05:37:49.066Z,16.10
2022-10-05T05:38:49.057Z,13.60
2022-10-05T05:39:49.036Z,19.50
2022-10-05T05:40:49.026Z,14.50
2022-10-05T05:41:49.034Z,18.20
2022-10-05T05:42:49.007Z,15.90
2022-10-05T05:43:48.987Z,14.00
2022-10-05T05:44:48.977Z,17.10
2022-10-05T05:45:48.967Z,13.90
2022-10-05T05:47:03.568Z,15.00
2022-10-05T05:47:49.973Z,15.30
2022-10-05T05:48:48.927Z,15.40
2022-10-05T05:49:48.911Z,12.50
2022-10-05T05:50:48.898Z,15.50
2022-10-05T05:51:48.899Z,15.50
2022-10-05T05:52:48.869Z,14.10
2022-10-05T05:53:48.849Z,17.60
2022-10-05T05:54:48.857Z,12.40
2022-10-05T05:55:48.828Z,16.80
2022-10-05T05:56:49.087Z,15.60
2022-10-05T05:57:48.798Z,18.00
2022-10-05T05:58:48.789Z,15.80
2022-10-05T05:59:48.773Z,15.00
2022-10-05T06:00:48.784Z,14.40
2022-10-05T06:01:48.906Z,15.10
2022-10-05T06:02:48.829Z,13.80
2022-10-05T06:03:48.720Z,15.20
2022-10-05T06:04:48.710Z,12.20
2022-10-05T06:05:48.693Z,17.80
2022-10-05T06:06:49.181Z,14.50
2022-10-05T06:07:48.672Z,14.90
2022-10-05T06:08:48.653Z,18.00
2022-10-05T06:09:48.642Z,15.60
2022-10-05T06:10:48.632Z,16.20
2022-10-05T06:11:48.630Z,13.40
2022-10-05T06:12:48.607Z,16.50
2022-10-05T06:13:48.661Z,17.80
2022-10-05T06:14:48.587Z,15.00
2022-10-05T06:15:48.571Z,14.60
2022-10-05T06:16:49.024Z,18.80
2022-10-05T06:17:48.543Z,14.50
2022-10-05T06:18:48.531Z,14.00
2022-10-05T06:19:48.524Z,15.00
2022-10-05T06:20:48.502Z,16.60
2022-10-05T06:21:48.503Z,14.80
2022-10-05T06:22:48.470Z,12.80
2022-10-05T06:23:48.491Z,17.00
2022-10-05T06:24:48.444Z,15.90
2022-10-05T06:25:48.464Z,13.50
2022-10-05T06:26:49.002Z,12.70
2022-10-05T06:27:48.406Z,13.00
2022-10-05T06:28:48.385Z,18.70
2022-10-05T06:29:48.385Z,12.20
2022-10-05T06:30:48.364Z,15.90
2022-10-05T06:31:48.398Z,14.20
2022-10-05T06:32:48.335Z,15.60
2022-10-05T06:33:48.334Z,15.70
2022-10-05T06:34:48.304Z,16.90
2022-10-05T06:35:48.295Z,15.50
2022-10-05T06:36:48.730Z,17.70
2022-10-05T06:37:48.274Z,18.80
2022-10-05T06:38:48.263Z,15.50
2022-10-05T06:39:48.246Z,17.90
2022-10-05T06:40:48.227Z,15.00
2022-10-05T06:41:48.236Z,15.60
2022-10-05T06:42:48.205Z,16.00
2022-10-05T06:43:48.197Z,14.70
2022-10-05T06:44:48.176Z,13.90
2022-10-05T06:45:48.263Z,14.20
2022-10-05T06:46:48.542Z,17.50
2022-10-05T06:47:48.136Z,16.70
2022-10-05T06:48:48.126Z,18.70
2022-10-05T06:49:48.107Z,14.70
2022-10-05T06:50:48.098Z,18.00
2022-10-05T06:51:48.105Z,19.10
2022-10-05T06:52:48.068Z,16.90
2022-10-05T06:53:48.059Z,14.10
2022-10-05T06:54:48.060Z,17.60
2022-10-05T06:55:48.035Z,17.60
2022-10-05T06:56:48.490Z,15.60
2022-10-05T06:57:48.009Z,15.20
2022-10-05T06:58:47.989Z,18.50
2022-10-05T06:59:47.980Z,14.40
2022-10-05T07:00:47.984Z,13.60
2022-10-05T07:01:48.260Z,15.60
2022-10-05T07:02:47.950Z,17.60
2022-10-05T07:03:47.959Z,15.50
2022-10-05T07:04:47.910Z,15.80
2022-10-05T07:05:47.950Z,15.60
2022-10-05T07:06:47.901Z,14.90
2022-10-05T07:07:47.870Z,14.90
2022-10-05T07:08:47.851Z,19.60
2022-10-05T07:09:47.852Z,15.60
2022-10-05T07:10:47.823Z,18.40
2022-10-05T07:11:52.925Z,12.40
2022-10-05T07:12:48.801Z,15.80
2022-10-05T07:13:47.795Z,14.30
2022-10-05T07:14:47.772Z,16.00
2022-10-05T07:15:47.769Z,11.90
2022-10-05T07:16:47.829Z,14.70
2022-10-05T07:17:47.740Z,16.70
2022-10-05T07:18:47.755Z,16.50
2022-10-05T07:19:47.713Z,16.10
2022-10-05T07:20:49.294Z,11.80
2022-10-05T07:21:47.992Z,15.10
2022-10-05T07:22:47.671Z,13.00
2022-10-05T07:23:47.662Z,13.70
2022-10-05T07:24:47.633Z,13.90
2022-10-05T07:25:47.634Z,17.50
2022-10-05T07:26:47.811Z,13.00
2022-10-05T07:27:50.979Z,15.30
2022-10-05T07:28:47.583Z,14.50
2022-10-05T07:29:47.573Z,14.80
2022-10-05T07:30:47.606Z,17.50
2022-10-05T07:31:47.576Z,15.10
2022-10-05T07:32:47.536Z,17.90
2022-10-05T07:33:47.524Z,14.50
2022-10-05T07:34:47.505Z,12.50
2022-10-05T07:35:47.498Z,14.20
2022-10-05T07:36:52.218Z,12.30
2022-10-05T07:37:48.475Z,16.40
2022-10-05T07:38:47.458Z,18.70
2022-10-05T07:40:01.687Z,15.60
2022-10-05T07:40:48.426Z,12.80
2022-10-05T07:41:47.434Z,14.60
2022-10-05T07:42:51.823Z,14.60
2022-10-05T07:44:03.443Z,12.10
2022-10-05T07:44:48.367Z,14.10
2022-10-05T07:45:47.428Z,17.10
2022-10-05T07:46:47.609Z,14.10
2022-10-05T07:47:47.334Z,13.80
2022-10-05T07:48:47.351Z,11.50
2022-10-05T07:49:47.324Z,16.20
2022-10-05T07:50:47.309Z,13.80
2022-10-05T07:51:47.303Z,10.90
2022-10-05T07:52:47.270Z,14.80
2022-10-05T07:53:47.259Z,14.40
2022-10-05T07:54:47.243Z,15.40
2022-10-05T07:55:47.228Z,12.30
2022-10-05T07:56:47.417Z,9.30
2022-10-05T07:57:47.206Z,13.40
2022-10-05T07:58:47.188Z,12.30
2022-10-05T07:59:47.179Z,14.00
2022-10-05T08:00:47.161Z,10.20
2022-10-05T08:01:47.197Z,11.00
2022-10-05T08:02:47.164Z,13.90
2022-10-05T08:03:47.120Z,13.50
2022-10-05T08:04:47.110Z,13.10
2022-10-05T08:05:47.105Z,12.60
2022-10-05T08:06:47.322Z,12.30
2022-10-05T08:07:47.069Z,11.30
2022-10-05T08:08:47.051Z,10.70
2022-10-05T08:09:47.053Z,9.90
2022-10-05T08:10:47.021Z,8.90
2022-10-05T08:11:47.374Z,8.90
2022-10-05T08:12:46.992Z,12.30
2022-10-05T08:13:46.990Z,13.00
2022-10-05T08:14:46.972Z,11.60
2022-10-05T08:15:47.027Z,11.40
2022-10-05T08:16:47.157Z,9.20
2022-10-05T08:17:46.941Z,10.00
2022-10-05T08:18:46.921Z,11.00
2022-10-05T08:19:46.926Z,7.30
2022-10-05T08:20:46.924Z,9.70
2022-10-05T08:21:47.167Z,10.30
2022-10-05T08:22:46.865Z,10.90
2022-10-05T08:23:46.858Z,10.90
2022-10-05T08:24:46.853Z,9.50
2022-10-05T08:25:46.830Z,11.00
2022-10-05T08:26:46.814Z,10.00
2022-10-05T08:27:46.824Z,6.50
2022-10-05T08:28:46.785Z,7.50
2022-10-05T08:29:46.782Z,6.90
2022-10-05T08:30:46.794Z,9.60
2022-10-05T08:31:47.042Z,8.00
2022-10-05T08:32:46.746Z,9.30
2022-10-05T08:33:46.716Z,8.20
2022-10-05T08:34:46.719Z,8.00
2022-10-05T08:35:46.724Z,10.50
2022-10-05T08:36:49.257Z,9.30
2022-10-05T08:37:47.686Z,11.00
2022-10-05T08:38:46.646Z,8.20
2022-10-05T08:39:46.648Z,8.00
2022-10-05T08:40:46.628Z,9.50
2022-10-05T08:41:46.837Z,10.70
2022-10-05T08:42:46.614Z,8.10
2022-10-05T08:43:46.601Z,10.10
2022-10-05T08:44:46.567Z,7.50
2022-10-05T08:45:46.630Z,8.10
2022-10-05T08:46:46.538Z,9.50
2022-10-05T08:47:46.550Z,7.50
2022-10-05T08:48:46.520Z,9.90
2022-10-05T08:49:46.509Z,9.30
2022-10-05T08:50:46.489Z,5.40
2022-10-05T08:51:46.667Z,8.40
2022-10-05T08:52:46.479Z,9.50
2022-10-05T08:53:46.461Z,7.60
2022-10-05T08:54:46.440Z,10.50
2022-10-05T08:55:46.496Z,11.80
2022-10-05T08:56:46.410Z,7.70
2022-10-05T08:57:46.426Z,7.20
2022-10-05T08:58:46.392Z,12.60
2022-10-05T08:59:46.380Z,7.30
2022-10-05T09:00:46.369Z,9.10
2022-10-05T09:01:46.648Z,7.70
2022-10-05T09:02:46.402Z,6.20
2022-10-05T09:03:46.352Z,7.30
2022-10-05T09:04:46.309Z,8.10
2022-10-05T09:05:46.293Z,8.40
2022-10-05T09:06:46.285Z,7.90
2022-10-05T09:07:46.283Z,9.40
2022-10-05T09:08:46.252Z,7.30
2022-10-05T09:09:46.242Z,10.10
2022-10-05T09:10:46.235Z,8.50
2022-10-05T09:11:46.468Z,5.60
2022-10-05T09:12:46.213Z,5.60
2022-10-05T09:13:46.193Z,7.50
2022-10-05T09:14:52.653Z,6.40
2022-10-05T09:15:47.201Z,7.00
2022-10-05T09:16:46.164Z,8.60
2022-10-05T09:17:46.142Z,5.60
2022-10-05T09:18:46.122Z,7.70
2022-10-05T09:19:46.146Z,11.40
2022-10-05T09:20:46.096Z,5.60
2022-10-05T09:21:46.372Z,6.40
2022-10-05T09:22:46.064Z,4.90
2022-10-05T09:23:46.055Z,5.60
2022-10-05T09:24:48.498Z,6.50
2022-10-05T09:25:46.036Z,6.80
2022-10-05T09:26:46.034Z,9.30
2022-10-05T09:27:46.004Z,7.20
2022-10-05T09:28:45.987Z,8.10
2022-10-05T09:29:45.977Z,11.70
2022-10-05T09:30:46.007Z,8.80
2022-10-05T09:31:46.260Z,6.50
2022-10-05T09:32:45.937Z,5.90
2022-10-05T09:33:45.926Z,7.00
2022-10-05T09:34:45.918Z,8.70
2022-10-05T09:35:45.898Z,8.20
2022-10-05T09:36:45.916Z,7.80
2022-10-05T09:37:45.870Z,12.30
2022-10-05T09:38:52.992Z,7.40
2022-10-05T09:39:45.849Z,9.70
2022-10-05T09:40:45.833Z,7.30
2022-10-05T09:41:46.104Z,9.20
2022-10-05T09:42:45.803Z,5.10
2022-10-05T09:43:45.794Z,8.30
2022-10-05T09:44:45.772Z,9.40
2022-10-05T09:45:45.770Z,7.10
2022-10-05T09:46:45.875Z,7.90
2022-10-05T09:47:45.733Z,8.80
2022-10-05T09:48:45.723Z,7.00
2022-10-05T09:49:45.713Z,9.00
2022-10-05T09:50:45.695Z,6.50
2022-10-05T09:51:45.937Z,6.40
2022-10-05T09:52:45.765Z,8.20
2022-10-05T09:53:45.678Z,7.20
2022-10-05T09:54:45.637Z,7.20
2022-10-05T09:55:45.634Z,4.30
2022-10-05T09:56:45.850Z,5.60
2022-10-05T09:57:47.198Z,6.10
2022-10-05T09:58:45.586Z,5.60
2022-10-05T09:59:45.585Z,5.60
2022-10-05T10:00:51.473Z,6.90
2022-10-05T10:01:46.989Z,5.10
2022-10-05T10:02:45.626Z,4.30
2022-10-05T10:03:45.527Z,4.40
2022-10-05T10:04:45.508Z,5.40
2022-10-05T10:05:45.508Z,4.60
2022-10-05T10:06:45.511Z,7.30
2022-10-05T10:07:45.493Z,5.50
2022-10-05T10:08:45.470Z,5.20
2022-10-05T10:09:45.479Z,4.40
2022-10-05T10:10:45.432Z,6.30
2022-10-05T10:11:45.684Z,6.10
2022-10-05T10:12:45.407Z,5.10
2022-10-05T10:13:45.399Z,8.20
2022-10-05T10:14:45.377Z,7.30
2022-10-05T10:15:45.407Z,5.30
2022-10-05T10:16:45.391Z,4.60
2022-10-05T10:17:45.362Z,4.10
2022-10-05T10:18:45.357Z,5.10
2022-10-05T10:19:45.324Z,9.60
2022-10-05T10:20:45.315Z,4.60
2022-10-05T10:21:45.615Z,5.80
2022-10-05T10:22:45.290Z,5.80
2022-10-05T10:23:45.272Z,5.50
2022-10-05T10:24:45.250Z,5.70
2022-10-05T10:25:45.241Z,5.50
2022-10-05T10:26:45.244Z,4.70
2022-10-05T10:27:48.061Z,3.80
2022-10-05T10:28:46.210Z,4.00
2022-10-05T10:29:45.183Z,4.50
2022-10-05T10:30:45.208Z,7.30
2022-10-05T10:31:45.502Z,3.20
2022-10-05T10:32:45.151Z,4.80
2022-10-05T10:33:45.132Z,5.40
2022-10-05T10:34:45.123Z,5.70
2022-10-05T10:35:45.094Z,5.70
2022-10-05T10:36:45.110Z,4.40
2022-10-05T10:37:45.085Z,8.40
2022-10-05T10:38:45.077Z,5.80
2022-10-05T10:39:45.066Z,4.10
2022-10-05T10:40:45.043Z,7.40
2022-10-05T10:41:45.035Z,4.20
2022-10-05T10:42:45.015Z,3.70
2022-10-05T10:43:44.993Z,5.20
2022-10-05T10:44:44.996Z,5.10
2022-10-05T10:45:44.976Z,8.10
2022-10-05T10:46:45.092Z,4.90
2022-10-05T10:47:44.945Z,6.90
2022-10-05T10:48:44.927Z,4.10
2022-10-05T10:49:44.969Z,3.50
2022-10-05T10:50:44.898Z,5.80
2022-10-05T10:51:44.880Z,3.80
2022-10-05T10:52:44.897Z,5.00
2022-10-05T10:53:44.852Z,5.10
2022-10-05T10:54:44.849Z,3.40
2022-10-05T10:55:44.828Z,4.80
2022-10-05T10:56:44.837Z,4.00
2022-10-05T10:57:44.799Z,2.40
2022-10-05T10:58:44.791Z,3.30
2022-10-05T10:59:44.784Z,3.80
2022-10-05T11:00:44.762Z,4.30
2022-10-05T11:01:44.807Z,3.80
2022-10-05T11:02:44.836Z,2.60
2022-10-05T11:03:44.731Z,3.70
2022-10-05T11:04:44.711Z,3.30
2022-10-05T11:05:48.008Z,2.60
2022-10-05T11:06:44.703Z,5.70
2022-10-05T11:07:44.682Z,2.70
2022-10-05T11:08:44.672Z,3.20
2022-10-05T11:09:44.653Z,3.40
2022-10-05T11:10:44.631Z,3.70
2022-10-05T11:11:44.654Z,2.90
2022-10-05T11:12:44.725Z,3.40
2022-10-05T11:13:44.604Z,2.30
2022-10-05T11:14:44.584Z,3.80
2022-10-05T11:15:44.705Z,6.00
2022-10-05T11:16:44.575Z,2.40
2022-10-05T11:17:44.635Z,6.30
2022-10-05T11:18:44.542Z,4.50
2022-10-05T11:20:02.619Z,3.10
2022-10-05T11:20:45.496Z,3.60
2022-10-05T11:21:44.478Z,2.50
2022-10-05T11:22:44.516Z,2.50
2022-10-05T11:23:44.479Z,2.80
2022-10-05T11:24:44.447Z,3.10
2022-10-05T11:25:44.498Z,4.20
2022-10-05T11:26:44.427Z,2.10
2022-10-05T11:27:44.419Z,4.10
2022-10-05T11:28:44.399Z,4.20
2022-10-05T11:29:44.379Z,2.10
2022-10-05T11:30:47.462Z,3.00
2022-10-05T11:31:45.418Z,2.30
2022-10-05T11:32:44.350Z,2.20
2022-10-05T11:33:44.331Z,1.90
2022-10-05T11:34:44.322Z,3.70
2022-10-05T11:35:44.321Z,4.90
2022-10-05T11:36:44.293Z,3.50
2022-10-05T11:37:44.292Z,3.90
2022-10-05T11:38:44.263Z,2.20
2022-10-05T11:39:44.253Z,1.80
2022-10-05T11:40:44.244Z,4.30
2022-10-05T11:41:44.236Z,4.60
2022-10-05T11:42:44.245Z,3.20
2022-10-05T11:43:44.195Z,3.80
2022-10-05T11:44:44.185Z,3.80
2022-10-05T11:45:44.177Z,3.40
2022-10-05T11:46:44.230Z,2.30
2022-10-05T11:47:44.180Z,4.10
2022-10-05T11:48:44.136Z,2.10
2022-10-05T11:49:44.117Z,4.40
2022-10-05T11:50:44.118Z,4.50
2022-10-05T11:51:44.102Z,3.90
2022-10-05T11:52:44.109Z,4.10
2022-10-05T11:53:44.069Z,4.50
2022-10-05T11:55:09.350Z,6.10
2022-10-05T11:55:45.049Z,5.50
2022-10-05T11:56:44.041Z,4.00
2022-10-05T11:57:44.043Z,3.80
2022-10-05T11:58:44.024Z,2.30
2022-10-05T11:59:44.013Z,5.90
2022-10-05T12:00:43.993Z,6.70
2022-10-05T12:01:43.973Z,4.60
2022-10-05T12:02:44.097Z,3.30
2022-10-05T12:03:44.061Z,4.10
2022-10-05T12:04:43.944Z,2.50
2022-10-05T12:05:43.926Z,3.10
2022-10-05T12:06:43.943Z,4.90
2022-10-05T12:07:43.985Z,3.60
2022-10-05T12:08:43.894Z,3.60
2022-10-05T12:09:43.913Z,5.10
2022-10-05T12:10:43.893Z,4.50
2022-10-05T12:11:43.867Z,2.90
2022-10-05T12:12:43.868Z,4.20
2022-10-05T12:13:43.848Z,4.20
2022-10-05T12:14:43.826Z,2.80
2022-10-05T12:15:43.838Z,2.60
2022-10-05T12:16:43.798Z,3.40
2022-10-05T12:17:43.799Z,4.70
2022-10-05T12:18:43.780Z,1.90
2022-10-05T12:19:43.758Z,5.40
2022-10-05T12:20:43.748Z,2.40
2022-10-05T12:21:43.754Z,2.30
2022-10-05T12:22:43.742Z,2.40
2022-10-05T12:23:43.712Z,3.70
2022-10-05T12:24:43.702Z,3.80
2022-10-05T12:25:43.683Z,3.90
2022-10-05T12:26:43.685Z,5.00
2022-10-05T12:27:43.691Z,5.50
2022-10-05T12:28:43.654Z,2.50
2022-10-05T12:29:43.634Z,3.80
2022-10-05T12:30:43.632Z,6.80
2022-10-05T12:31:43.659Z,4.90
2022-10-05T12:32:43.636Z,3.10
2022-10-05T12:33:43.586Z,5.80
2022-10-05T12:34:43.578Z,2.90
2022-10-05T12:35:48.262Z,2.60
2022-10-05T12:37:03.522Z,3.50
2022-10-05T12:37:44.558Z,3.70
2022-10-05T12:38:43.533Z,2.40
2022-10-05T12:39:43.520Z,7.20
2022-10-05T12:40:43.500Z,3.00
2022-10-05T12:41:43.490Z,3.90
2022-10-05T12:42:43.498Z,2.60
2022-10-05T12:43:43.467Z,4.60
2022-10-05T12:44:43.471Z,4.60
2022-10-05T12:45:43.523Z,3.10
2022-10-05T12:46:43.431Z,4.20
2022-10-05T12:47:43.432Z,3.90
2022-10-05T12:48:43.407Z,2.40
2022-10-05T12:49:43.391Z,2.30
2022-10-05T12:50:43.386Z,2.10
2022-10-05T12:51:43.363Z,2.70
2022-10-05T12:52:43.397Z,5.20
2022-10-05T12:53:43.340Z,4.00
2022-10-05T12:54:43.335Z,4.90
2022-10-05T12:55:43.332Z,7.70
2022-10-05T12:56:43.326Z,2.50
2022-10-05T12:57:43.286Z,3.50
2022-10-05T12:58:43.277Z,3.30
2022-10-05T12:59:43.268Z,1.90
2022-10-05T13:00:43.318Z,3.70
2022-10-05T13:01:43.345Z,3.70